createdAt,value
2018-04-12T00:00:08.804Z,13.20
2018-04-12T00:02:36.409Z,15.98
2018-04-12T00:05:03.951Z,13.43
2018-04-12T00:07:32.216Z,13.02
2018-04-12T00:10:00.507Z,14.00
2018-04-12T00:12:28.079Z,15.88
2018-04-12T00:14:55.849Z,15.82
2018-04-12T00:17:23.361Z,14.10
2018-04-12T00:19:50.860Z,11.60
2018-04-12T00:22:18.406Z,13.75
2018-04-12T00:24:46.676Z,12.10
2018-04-12T00:27:15.047Z,11.63
2018-04-12T00:29:42.537Z,11.55
2018-04-12T00:32:10.043Z,13.25
2018-04-12T00:34:37.640Z,12.40
2018-04-12T00:37:05.954Z,16.70
2018-04-12T00:39:33.567Z,16.33
2018-04-12T00:42:01.853Z,13.80
2018-04-12T00:44:30.133Z,16.55
2018-04-12T00:46:58.396Z,17.20
2018-04-12T00:49:26.709Z,14.07
2018-04-12T00:51:54.966Z,15.15
2018-04-12T00:54:22.461Z,15.68
2018-04-12T00:56:50.118Z,16.60
2018-04-12T00:59:18.352Z,16.45
2018-04-12T01:01:46.618Z,15.77
2018-04-12T01:04:14.944Z,14.82
2018-04-12T01:06:42.436Z,14.50
2018-04-12T01:09:10.018Z,14.70
2018-04-12T01:11:38.281Z,15.10
2018-04-12T01:14:05.793Z,18.12
2018-04-12T01:16:33.320Z,17.67
2018-04-12T01:19:01.619Z,18.15
2018-04-12T01:21:29.113Z,13.32
2018-04-12T01:23:56.709Z,13.88
2018-04-12T01:26:24.236Z,18.65
2018-04-12T01:28:51.767Z,13.77
2018-04-12T01:31:19.292Z,16.35
2018-04-12T01:33:47.571Z,16.05
2018-04-12T01:36:15.846Z,12.32
2018-04-12T01:38:44.117Z,15.10
2018-04-12T01:41:12.403Z,14.38
2018-04-12T01:43:40.778Z,15.18
2018-04-12T01:46:09.050Z,13.45
2018-04-12T01:48:37.425Z,11.45
2018-04-12T01:51:05.689Z,11.23
2018-04-12T01:53:33.224Z,12.75
2018-04-12T01:56:01.524Z,12.37
2018-04-12T01:58:29.048Z,13.48
2018-04-12T02:00:56.557Z,14.15
2018-04-12T02:03:24.849Z,15.40
2018-04-12T02:05:52.352Z,13.52
2018-04-12T02:08:19.853Z,11.38
2018-04-12T02:10:48.123Z,14.50
2018-04-12T02:13:16.404Z,10.85
2018-04-12T02:15:44.683Z,12.10
2018-04-12T02:18:12.964Z,12.95
2018-04-12T02:20:40.614Z,14.00
2018-04-12T02:23:08.864Z,11.38
2018-04-12T02:25:36.388Z,12.75
2018-04-12T02:28:03.884Z,16.05
2018-04-12T02:30:31.408Z,11.43
2018-04-12T02:32:58.905Z,12.20
2018-04-12T02:35:26.408Z,11.15
2018-04-12T02:37:53.880Z,12.75
2018-04-12T02:40:21.360Z,8.93
2018-04-12T02:42:48.863Z,8.45
2018-04-12T02:45:17.150Z,11.80
2018-04-12T02:47:45.516Z,10.40
2018-04-12T02:50:13.776Z,10.32
2018-04-12T02:52:41.259Z,12.48
2018-04-12T02:55:08.799Z,11.20
2018-04-12T02:57:36.298Z,10.77
2018-04-12T03:00:03.811Z,10.65
2018-04-12T03:02:32.116Z,12.07
2018-04-12T03:04:59.611Z,11.23
2018-04-12T03:07:27.086Z,17.75
2018-04-12T03:09:54.667Z,13.23
2018-04-12T03:12:22.950Z,15.80
2018-04-12T03:14:51.231Z,13.07
2018-04-12T03:17:19.477Z,13.90
2018-04-12T03:19:47.365Z,21.17
2018-04-12T03:22:15.617Z,16.00
2018-04-12T03:24:43.122Z,14.35
2018-04-12T03:27:10.662Z,13.62
2018-04-12T03:29:38.911Z,17.73
2018-04-12T03:32:06.704Z,12.77
2018-04-12T03:34:34.944Z,14.00
2018-04-12T03:37:02.541Z,13.65
2018-04-12T03:39:30.818Z,12.82
2018-04-12T03:41:59.095Z,13.82
2018-04-12T03:44:27.365Z,16.80
2018-04-12T03:46:55.677Z,10.32
2018-04-12T03:49:23.167Z,12.70
2018-04-12T03:51:50.657Z,10.77
2018-04-12T03:54:18.916Z,11.15
2018-04-12T03:56:46.460Z,14.93
2018-04-12T03:59:13.951Z,10.52
2018-04-12T04:01:42.250Z,12.25
2018-04-12T04:04:10.497Z,12.90
2018-04-12T04:06:38.882Z,11.43
2018-04-12T04:09:07.159Z,11.30
2018-04-12T04:11:35.408Z,14.25
2018-04-12T04:14:02.895Z,12.57
2018-04-12T04:16:43.040Z,15.48
2018-04-12T04:19:23.306Z,12.55
2018-04-12T04:21:51.698Z,15.00
2018-04-12T04:24:19.199Z,11.45
2018-04-12T04:26:46.803Z,16.55
2018-04-12T04:29:15.090Z,15.63
2018-04-12T04:31:42.573Z,11.68
2018-04-12T04:34:10.105Z,12.95
2018-04-12T04:36:38.585Z,12.57
2018-04-12T04:39:06.957Z,14.60
2018-04-12T04:41:35.268Z,15.05
2018-04-12T04:44:02.760Z,13.98
2018-04-12T04:46:30.281Z,17.15
2018-04-12T04:48:57.804Z,12.25
2018-04-12T04:51:26.081Z,14.02
2018-04-12T04:53:54.363Z,15.13
2018-04-12T04:56:22.608Z,16.10
2018-04-12T04:58:50.500Z,13.35
2018-04-12T05:01:18.744Z,14.40
2018-04-12T05:03:46.657Z,12.77
2018-04-12T05:06:14.157Z,12.98
2018-04-12T05:08:41.630Z,12.20
2018-04-12T05:11:09.119Z,13.00
2018-04-12T05:13:37.372Z,17.17
2018-04-12T05:16:04.874Z,11.68
2018-04-12T05:18:32.356Z,16.48
2018-04-12T05:21:00.276Z,13.82
2018-04-12T05:23:28.528Z,20.42
2018-04-12T05:25:56.011Z,9.95
2018-04-12T05:28:24.323Z,11.15
2018-04-12T05:30:51.842Z,14.50
2018-04-12T05:33:20.117Z,18.48
2018-04-12T05:35:48.396Z,17.00
2018-04-12T05:38:16.788Z,12.00
2018-04-12T05:40:45.101Z,14.48
2018-04-12T05:43:12.719Z,13.32
2018-04-12T05:45:41.003Z,19.87
2018-04-12T05:48:09.261Z,13.90
2018-04-12T05:50:37.538Z,14.35
2018-04-12T05:53:06.093Z,14.35
2018-04-12T05:55:33.581Z,13.80
2018-04-12T05:58:01.864Z,18.15
2018-04-12T06:00:30.148Z,20.77
2018-04-12T06:02:58.211Z,16.30
2018-04-12T06:05:26.504Z,13.82
2018-04-12T06:07:54.012Z,14.77
2018-04-12T06:10:21.543Z,11.60
2018-04-12T06:12:49.037Z,12.73
2018-04-12T06:15:16.621Z,15.20
2018-04-12T06:17:44.907Z,12.60
2018-04-12T06:20:13.208Z,16.67
2018-04-12T06:22:40.688Z,14.48
2018-04-12T06:25:08.200Z,13.85
2018-04-12T06:27:35.708Z,15.05
2018-04-12T06:30:03.620Z,14.40
2018-04-12T06:32:31.937Z,16.52
2018-04-12T06:34:59.434Z,17.70
2018-04-12T06:37:26.953Z,17.80
2018-04-12T06:39:54.550Z,17.20
2018-04-12T06:42:22.116Z,24.00
2018-04-12T06:44:49.632Z,17.73
2018-04-12T06:47:17.190Z,20.10
2018-04-12T06:49:44.678Z,19.98
2018-04-12T06:52:12.221Z,21.30
2018-04-12T06:54:39.786Z,20.92
2018-04-12T06:57:07.375Z,25.40
2018-04-12T06:59:35.673Z,22.25
2018-04-12T07:02:03.162Z,24.20
2018-04-12T07:04:30.676Z,29.37
2018-04-12T07:06:58.235Z,26.12
2018-04-12T07:09:26.489Z,24.80
2018-04-12T07:11:54.062Z,27.67
2018-04-12T07:14:22.322Z,24.12
2018-04-12T07:16:49.840Z,23.12
2018-04-12T07:19:17.339Z,25.02
2018-04-12T07:21:44.811Z,20.30
2018-04-12T07:24:13.095Z,27.90
2018-04-12T07:26:41.368Z,23.55
2018-04-12T07:29:09.649Z,24.30
2018-04-12T07:31:37.921Z,25.52
2018-04-12T07:34:06.239Z,22.95
2018-04-12T07:36:33.716Z,23.40
2018-04-12T07:39:01.224Z,23.48
2018-04-12T07:41:29.692Z,26.12
2018-04-12T07:43:57.944Z,23.17
2018-04-12T07:46:25.437Z,26.55
2018-04-12T07:48:53.809Z,31.58
2018-04-12T07:51:22.090Z,29.17
2018-04-12T07:53:50.404Z,27.00
2018-04-12T07:56:17.916Z,26.52
2018-04-12T07:58:46.186Z,28.73
2018-04-12T08:01:13.792Z,30.92
2018-04-12T08:03:41.333Z,28.02
2018-04-12T08:06:09.701Z,23.75
2018-04-12T08:08:37.976Z,26.75
2018-04-12T08:11:06.357Z,29.73
2018-04-12T08:13:34.610Z,26.80
2018-04-12T08:16:02.144Z,26.37
2018-04-12T08:18:29.645Z,38.45
2018-04-12T08:20:58.019Z,36.40
2018-04-12T08:23:26.288Z,37.67
2018-04-12T08:25:54.669Z,38.45
2018-04-12T08:28:22.924Z,39.33
2018-04-12T08:30:50.445Z,40.20
2018-04-12T08:33:17.966Z,37.08
2018-04-12T08:35:46.238Z,34.85
2018-04-12T08:38:14.540Z,39.75
2018-04-12T08:40:42.042Z,41.50
2018-04-12T08:43:09.652Z,38.00
2018-04-12T08:45:37.891Z,36.43
2018-04-12T08:48:05.444Z,39.37
2018-04-12T08:50:33.038Z,39.77
2018-04-12T08:53:01.329Z,42.10
2018-04-12T08:55:28.824Z,40.37
2018-04-12T08:57:56.326Z,40.17
2018-04-12T09:00:24.603Z,48.83
2018-04-12T09:02:52.875Z,46.27
2018-04-12T09:05:20.451Z,44.77
2018-04-12T09:07:48.724Z,43.57
2018-04-12T09:10:16.980Z,47.93
2018-04-12T09:12:44.589Z,48.63
2018-04-12T09:15:12.078Z,47.77
2018-04-12T09:17:39.677Z,53.13
2018-04-12T09:20:07.934Z,44.90
2018-04-12T09:22:35.521Z,44.63
2018-04-12T09:25:03.756Z,49.33
2018-04-12T09:27:32.110Z,49.57
2018-04-12T09:29:59.606Z,56.83
2018-04-12T09:32:27.929Z,48.93
2018-04-12T09:34:55.443Z,48.97
2018-04-12T09:37:23.843Z,50.80
2018-04-12T09:39:52.112Z,48.17
2018-04-12T09:42:20.373Z,46.47
2018-04-12T09:44:47.940Z,50.03
2018-04-12T09:47:16.196Z,51.57
2018-04-12T09:49:45.316Z,48.27
2018-04-12T09:52:13.606Z,45.57
2018-04-12T09:54:41.109Z,44.53
2018-04-12T09:57:08.708Z,46.07
2018-04-12T09:59:36.991Z,47.23
2018-04-12T10:02:05.279Z,49.20
2018-04-12T10:04:33.229Z,42.77
2018-04-12T10:07:05.504Z,44.20
2018-04-12T10:09:33.882Z,44.13
2018-04-12T10:12:02.139Z,44.90
2018-04-12T10:14:29.646Z,42.17
2018-04-12T10:16:57.236Z,45.90
2018-04-12T10:19:24.768Z,46.87
2018-04-12T10:21:52.290Z,47.20
2018-04-12T10:24:19.766Z,48.47
2018-04-12T10:26:47.298Z,45.60
2018-04-12T10:29:14.779Z,45.60
2018-04-12T10:31:42.292Z,45.60
2018-04-12T10:34:09.788Z,48.20
2018-04-12T10:36:38.130Z,50.10
2018-04-12T10:39:05.643Z,58.27
2018-04-12T10:41:33.186Z,77.60
2018-04-12T10:44:01.465Z,47.13
2018-04-12T10:46:28.970Z,48.67
2018-04-12T10:48:56.519Z,41.97
2018-04-12T10:51:24.027Z,46.63
2018-04-12T10:53:52.286Z,45.93
2018-04-12T10:56:19.819Z,47.97
2018-04-12T10:58:47.327Z,48.33
2018-04-12T11:01:15.601Z,43.60
2018-04-12T11:03:43.845Z,45.70
2018-04-12T11:06:12.968Z,44.27
2018-04-12T11:08:41.226Z,44.80
2018-04-12T11:11:08.755Z,43.90
2018-04-12T11:13:36.293Z,48.13
2018-04-12T11:16:03.929Z,47.70
2018-04-12T11:18:32.323Z,44.53
2018-04-12T11:21:00.581Z,49.83
2018-04-12T11:23:28.069Z,43.37
2018-04-12T11:25:55.598Z,44.67
2018-04-12T11:28:23.169Z,44.33
2018-04-12T11:30:50.660Z,44.00
2018-04-12T11:33:18.177Z,45.00
2018-04-12T11:35:46.443Z,45.90
2018-04-12T11:38:14.011Z,41.83
2018-04-12T11:40:42.338Z,41.57
2018-04-12T11:43:09.788Z,49.13
2018-04-12T11:45:37.317Z,41.83
2018-04-12T11:48:04.821Z,44.97
2018-04-12T11:50:32.324Z,49.50
2018-04-12T11:52:59.879Z,48.40
2018-04-12T11:55:28.483Z,47.87
2018-04-12T11:57:56.781Z,44.00
2018-04-12T12:00:24.302Z,43.10
2018-04-12T12:02:51.887Z,44.33
2018-04-12T12:05:19.444Z,41.47
2018-04-12T12:07:46.936Z,42.10
2018-04-12T12:10:14.460Z,45.20
2018-04-12T12:12:42.149Z,42.80
2018-04-12T12:15:09.644Z,44.83
2018-04-12T12:17:38.000Z,43.53
2018-04-12T12:20:05.581Z,43.87
2018-04-12T12:22:33.858Z,47.10
2018-04-12T12:25:02.178Z,47.40
2018-04-12T12:27:29.839Z,45.03
2018-04-12T12:29:57.369Z,46.50
2018-04-12T12:32:25.646Z,43.03
2018-04-12T12:34:53.278Z,42.00
2018-04-12T12:37:21.540Z,41.57
2018-04-12T12:39:49.080Z,43.00
2018-04-12T12:42:16.694Z,40.03
2018-04-12T12:44:44.948Z,41.20
2018-04-12T12:47:13.239Z,40.47
2018-04-12T12:49:40.733Z,39.97
2018-04-12T12:52:08.313Z,49.17
2018-04-12T12:54:35.825Z,48.40
2018-04-12T12:57:04.131Z,47.47
2018-04-12T12:59:31.675Z,49.90
2018-04-12T13:01:59.939Z,52.07
2018-04-12T13:04:28.201Z,50.70
2018-04-12T13:06:56.482Z,50.33
2018-04-12T13:09:24.012Z,48.83
2018-04-12T13:11:51.604Z,51.80
2018-04-12T13:14:19.900Z,47.23
2018-04-12T13:16:47.400Z,42.77
2018-04-12T13:19:14.912Z,48.50
2018-04-12T13:21:43.164Z,46.50
2018-04-12T13:24:10.683Z,52.40
2018-04-12T13:26:38.181Z,42.07
2018-04-12T13:29:05.784Z,44.07
2018-04-12T13:31:33.280Z,45.40
2018-04-12T13:34:01.108Z,43.70
2018-04-12T13:36:28.722Z,45.27
2018-04-12T13:38:57.043Z,48.27
2018-04-12T13:41:24.517Z,41.30
2018-04-12T13:43:52.060Z,47.87
2018-04-12T13:46:29.567Z,41.23
2018-04-12T13:48:57.086Z,42.50
2018-04-12T13:51:25.340Z,43.67
2018-04-12T13:53:53.613Z,39.20
2018-04-12T13:56:21.187Z,37.80
2018-04-12T13:58:49.448Z,43.10
2018-04-12T14:01:17.036Z,45.60
2018-04-12T14:03:44.598Z,36.20
2018-04-12T14:06:12.108Z,28.80
2018-04-12T14:08:39.698Z,32.03
2018-04-12T14:11:07.962Z,33.73
2018-04-12T14:13:35.547Z,36.20
2018-04-12T14:16:03.821Z,29.47
2018-04-12T14:18:32.224Z,32.27
2018-04-12T14:20:59.737Z,27.60
2018-04-12T14:23:27.328Z,29.33
2018-04-12T14:25:55.314Z,31.87
2018-04-12T14:28:22.813Z,36.20
2018-04-12T14:30:51.100Z,28.60
2018-04-12T14:33:18.608Z,28.40
2018-04-12T14:35:46.257Z,28.50
2018-04-12T14:38:14.540Z,26.50
2018-04-12T14:40:42.101Z,26.20
2018-04-12T14:43:09.616Z,23.73
2018-04-12T14:45:37.180Z,24.53
2018-04-12T14:48:05.469Z,26.93
2018-04-12T14:50:33.785Z,25.83
2018-04-12T14:53:01.281Z,25.33
2018-04-12T14:55:28.772Z,23.70
2018-04-12T14:57:56.282Z,24.50
2018-04-12T15:00:23.859Z,22.33
2018-04-12T15:02:52.065Z,23.40
2018-04-12T15:05:19.609Z,23.87
2018-04-12T15:07:48.947Z,26.53
2018-04-12T15:10:16.484Z,25.07
2018-04-12T15:12:44.130Z,21.27
2018-04-12T15:15:12.397Z,20.53
2018-04-12T15:17:40.693Z,20.40
2018-04-12T15:20:08.963Z,22.47
2018-04-12T15:22:37.244Z,19.93
2018-04-12T15:25:04.777Z,22.10
2018-04-12T15:27:32.296Z,17.40
2018-04-12T15:29:59.884Z,17.73
2018-04-12T15:32:28.947Z,20.20
2018-04-12T15:34:57.194Z,25.30
2018-04-12T15:37:24.697Z,18.13
2018-04-12T15:39:52.241Z,16.50
2018-04-12T15:42:20.158Z,16.60
2018-04-12T15:44:48.465Z,22.20
2018-04-12T15:47:16.017Z,15.63
2018-04-12T15:49:43.632Z,22.53
2018-04-12T15:52:11.128Z,17.40
2018-04-12T15:54:39.435Z,18.20
2018-04-12T15:57:06.957Z,20.43
2018-04-12T15:59:35.221Z,21.13
2018-04-12T16:02:03.048Z,15.23
2018-04-12T16:04:30.537Z,16.20
2018-04-12T16:06:59.714Z,15.40
2018-04-12T16:09:27.468Z,18.70
2018-04-12T16:11:54.999Z,15.17
2018-04-12T16:14:22.520Z,16.60
2018-04-12T16:16:50.016Z,16.13
2018-04-12T16:19:17.537Z,18.27
2018-04-12T16:21:45.061Z,15.23
2018-04-12T16:24:12.707Z,17.73
2018-04-12T16:26:40.231Z,15.77
2018-04-12T16:29:08.688Z,19.20
2018-04-12T16:31:36.172Z,19.57
2018-04-12T16:34:04.476Z,18.17
2018-04-12T16:36:31.992Z,15.20
2018-04-12T16:39:00.457Z,13.93
2018-04-12T16:41:30.494Z,12.70
2018-04-12T16:43:58.985Z,14.57
2018-04-12T16:46:27.363Z,14.00
2018-04-12T16:48:55.673Z,12.67
2018-04-12T16:51:23.153Z,16.80
2018-04-12T16:53:50.667Z,14.20
2018-04-12T16:56:18.226Z,14.80
2018-04-12T16:58:45.809Z,16.87
2018-04-12T17:01:13.289Z,17.00
2018-04-12T17:03:40.901Z,18.07
2018-04-12T17:06:08.416Z,22.70
2018-04-12T17:08:35.927Z,21.63
2018-04-12T17:11:03.466Z,17.73
2018-04-12T17:13:31.858Z,20.90
2018-04-12T17:16:00.433Z,21.00
2018-04-12T17:18:28.171Z,17.93
2018-04-12T17:20:56.591Z,21.13
2018-04-12T17:23:24.338Z,20.27
2018-04-12T17:25:53.412Z,21.27
2018-04-12T17:28:21.702Z,17.50
2018-04-12T17:30:50.047Z,16.00
2018-04-12T17:33:17.662Z,16.97
2018-04-12T17:35:45.629Z,21.37
2018-04-12T17:38:13.941Z,21.67
2018-04-12T17:40:41.487Z,16.40
2018-04-12T17:43:08.995Z,15.70
2018-04-12T17:45:37.329Z,16.27
2018-04-12T17:48:05.226Z,18.67
2018-04-12T17:50:32.851Z,16.83
2018-04-12T17:53:00.329Z,16.60
2018-04-12T17:55:27.841Z,20.53
2018-04-12T17:57:55.398Z,17.70
2018-04-12T18:00:23.747Z,22.00
2018-04-12T18:02:51.289Z,24.43
2018-04-12T18:05:18.839Z,23.90
2018-04-12T18:07:46.379Z,18.50
2018-04-12T18:10:13.941Z,16.60
2018-04-12T18:12:41.507Z,17.20
2018-04-12T18:15:09.005Z,18.70
2018-04-12T18:17:36.523Z,23.07
2018-04-12T18:20:04.057Z,22.00
2018-04-12T18:22:31.584Z,18.03
2018-04-12T18:24:59.887Z,24.43
2018-04-12T18:27:28.218Z,18.53
2018-04-12T18:29:55.841Z,22.73
2018-04-12T18:32:23.377Z,19.33
2018-04-12T18:34:52.461Z,20.80
2018-04-12T18:37:20.861Z,19.77
2018-04-12T18:39:48.387Z,20.53
2018-04-12T18:42:15.953Z,27.10
2018-04-12T18:44:44.289Z,20.43
2018-04-12T18:47:11.811Z,16.43
2018-04-12T18:49:39.409Z,23.60
2018-04-12T18:52:06.901Z,15.00
2018-04-12T18:54:35.304Z,36.37
2018-04-12T18:57:03.595Z,18.97
2018-04-12T18:59:31.137Z,25.73
2018-04-12T19:01:59.415Z,22.50
2018-04-12T19:04:27.689Z,32.10
2018-04-12T19:06:56.002Z,26.43
2018-04-12T19:09:23.502Z,34.20
2018-04-12T19:11:51.030Z,25.87
2018-04-12T19:14:18.573Z,26.63
2018-04-12T19:16:46.923Z,21.37
2018-04-12T19:19:15.331Z,19.27
2018-04-12T19:21:42.959Z,15.83
2018-04-12T19:24:11.274Z,14.60
2018-04-12T19:26:38.790Z,15.30
2018-04-12T19:29:07.789Z,14.23
2018-04-12T19:31:36.088Z,15.60
2018-04-12T19:34:03.611Z,14.47
2018-04-12T19:36:31.197Z,12.73
2018-04-12T19:38:59.484Z,14.03
2018-04-12T19:41:27.036Z,13.73
2018-04-12T19:43:54.569Z,13.87
2018-04-12T19:46:22.140Z,15.03
2018-04-12T19:48:49.645Z,15.53
2018-04-12T19:51:17.184Z,15.47
2018-04-12T19:53:44.713Z,21.00
2018-04-12T19:56:13.045Z,13.90
2018-04-12T19:58:40.579Z,14.27
2018-04-12T20:01:08.117Z,14.93
2018-04-12T20:03:35.728Z,14.47
2018-04-12T20:06:03.588Z,14.63
2018-04-12T20:08:31.105Z,19.10
2018-04-12T20:10:58.836Z,14.37
2018-04-12T20:13:26.280Z,14.17
2018-04-12T20:15:53.815Z,16.47
2018-04-12T20:18:21.470Z,17.20
2018-04-12T20:20:48.994Z,15.87
2018-04-12T20:23:16.642Z,16.30
2018-04-12T20:25:44.209Z,16.00
2018-04-12T20:28:12.498Z,15.90
2018-04-12T20:30:40.018Z,16.43
2018-04-12T20:33:07.525Z,15.30
2018-04-12T20:35:35.009Z,13.93
2018-04-12T20:38:02.792Z,14.53
2018-04-12T20:40:30.325Z,13.83
2018-04-12T20:42:57.835Z,15.57
2018-04-12T20:45:26.123Z,14.60
2018-04-12T20:47:54.508Z,15.73
2018-04-12T20:50:22.834Z,18.20
2018-04-12T20:52:50.317Z,15.70
2018-04-12T20:55:18.619Z,15.77
2018-04-12T20:57:46.136Z,13.60
2018-04-12T21:00:13.702Z,13.57
2018-04-12T21:02:41.224Z,16.50
2018-04-12T21:05:08.765Z,14.37
2018-04-12T21:07:36.320Z,14.10
2018-04-12T21:10:03.819Z,14.97
2018-04-12T21:12:31.341Z,14.37
2018-04-12T21:14:58.886Z,12.63
2018-04-12T21:17:26.415Z,14.90
2018-04-12T21:19:53.975Z,14.30
2018-04-12T21:22:21.513Z,18.73
2018-04-12T21:24:49.033Z,15.60
2018-04-12T21:27:16.574Z,14.27
2018-04-12T21:29:44.948Z,18.00
2018-04-12T21:32:13.250Z,22.47
2018-04-12T21:34:40.792Z,17.03
2018-04-12T21:37:09.062Z,18.40
2018-04-12T21:39:37.366Z,16.00
2018-04-12T21:42:04.909Z,19.17
2018-04-12T21:44:33.332Z,20.77
2018-04-12T21:47:00.879Z,18.30
2018-04-12T21:49:28.424Z,15.30
2018-04-12T21:51:55.948Z,15.23
2018-04-12T21:54:24.280Z,13.60
2018-04-12T21:56:51.837Z,13.70
2018-04-12T21:59:19.358Z,14.10
2018-04-12T22:01:46.943Z,14.07
2018-04-12T22:04:14.433Z,13.83
2018-04-12T22:06:41.960Z,20.23
2018-04-12T22:09:09.522Z,14.80
2018-04-12T22:11:37.048Z,13.47
2018-04-12T22:14:05.432Z,13.50
2018-04-12T22:16:33.147Z,14.03
2018-04-12T22:19:00.679Z,17.37
2018-04-12T22:21:28.189Z,13.20
2018-04-12T22:23:55.750Z,13.93
2018-04-12T22:26:23.258Z,15.87
2018-04-12T22:28:50.885Z,16.27
2018-04-12T22:31:19.167Z,17.67
2018-04-12T22:33:47.482Z,22.33
2018-04-12T22:36:14.969Z,18.40
2018-04-12T22:38:42.557Z,17.93
2018-04-12T22:41:10.835Z,17.13
2018-04-12T22:43:39.221Z,22.10
2018-04-12T22:46:06.726Z,19.40
2018-04-12T22:48:34.231Z,18.63
2018-04-12T22:51:02.547Z,18.40
2018-04-12T22:53:30.064Z,18.37
2018-04-12T22:55:58.444Z,35.97
2018-04-12T22:58:26.727Z,16.00
2018-04-12T23:00:54.312Z,15.37
2018-04-12T23:03:21.804Z,14.13
2018-04-12T23:05:49.398Z,13.93
2018-04-12T23:08:18.154Z,11.67
2018-04-12T23:10:45.949Z,13.13
2018-04-12T23:13:14.224Z,14.60
2018-04-12T23:15:42.552Z,15.00
2018-04-12T23:18:10.071Z,15.80
2018-04-12T23:20:37.573Z,15.80
2018-04-12T23:23:05.369Z,17.70
2018-04-12T23:25:33.644Z,16.07
2018-04-12T23:28:01.214Z,17.37
2018-04-12T23:30:29.482Z,19.20
2018-04-12T23:32:57.785Z,15.33
2018-04-12T23:35:25.311Z,17.73
2018-04-12T23:37:52.814Z,17.57
2018-04-12T23:40:20.344Z,16.47
2018-04-12T23:42:48.617Z,19.10
2018-04-12T23:45:16.880Z,11.63
2018-04-12T23:47:44.390Z,13.10
2018-04-12T23:50:11.947Z,11.37
2018-04-12T23:52:39.461Z,11.00
2018-04-12T23:55:07.756Z,10.50
2018-04-12T23:57:35.264Z,13.93
